sensor_id;sensor_type;location;lat;lon;timestamp;temperature;humidity
44723;DHT22;30451;48.638;10.624;2023-07-20T00:01:51;27.40;45.10
44723;DHT22;30451;48.638;10.624;2023-07-20T00:04:17;27.40;45.20
44723;DHT22;30451;48.638;10.624;2023-07-20T00:06:42;27.30;45.10
44723;DHT22;30451;48.638;10.624;2023-07-20T00:09:08;27.40;45.10
44723;DHT22;30451;48.638;10.624;2023-07-20T00:11:37;27.40;45.10
44723;DHT22;30451;48.638;10.624;2023-07-20T00:14:06;27.40;45.10
44723;DHT22;30451;48.638;10.624;2023-07-20T00:16:31;27.30;45.10
44723;DHT22;30451;48.638;10.624;2023-07-20T00:18:57;27.40;45.20
44723;DHT22;30451;48.638;10.624;2023-07-20T00:21:23;27.30;45.10
44723;DHT22;30451;48.638;10.624;2023-07-20T00:23:48;27.40;45.20
44723;DHT22;30451;48.638;10.624;2023-07-20T00:26:14;27.40;45.20
44723;DHT22;30451;48.638;10.624;2023-07-20T00:28:39;27.40;45.20
44723;DHT22;30451;48.638;10.624;2023-07-20T00:31:05;27.40;45.20
44723;DHT22;30451;48.638;10.624;2023-07-20T00:33:31;27.40;45.20
44723;DHT22;30451;48.638;10.624;2023-07-20T00:35:56;27.30;45.20
44723;DHT22;30451;48.638;10.624;2023-07-20T00:38:22;27.30;45.20
44723;DHT22;30451;48.638;10.624;2023-07-20T00:40:48;27.30;45.20
44723;DHT22;30451;48.638;10.624;2023-07-20T00:43:15;27.30;45.20
44723;DHT22;30451;48.638;10.624;2023-07-20T00:45:41;27.30;45.30
44723;DHT22;30451;48.638;10.624;2023-07-20T00:48:08;27.30;45.20
44723;DHT22;30451;48.638;10.624;2023-07-20T00:50:34;27.40;45.30
44723;DHT22;30451;48.638;10.624;2023-07-20T00:53:00;27.40;45.30
44723;DHT22;30451;48.638;10.624;2023-07-20T00:55:29;27.30;45.30
44723;DHT22;30451;48.638;10.624;2023-07-20T00:57:55;27.30;45.30
44723;DHT22;30451;48.638;10.624;2023-07-20T01:00:20;27.30;45.30
44723;DHT22;30451;48.638;10.624;2023-07-20T01:02:46;27.30;45.30
44723;DHT22;30451;48.638;10.624;2023-07-20T01:05:13;27.30;45.30
44723;DHT22;30451;48.638;10.624;2023-07-20T01:10:39;27.30;45.40
44723;DHT22;30451;48.638;10.624;2023-07-20T01:13:06;27.30;45.40
44723;DHT22;30451;48.638;10.624;2023-07-20T01:15:34;27.30;45.40
44723;DHT22;30451;48.638;10.624;2023-07-20T01:17:59;27.30;45.40
44723;DHT22;30451;48.638;10.624;2023-07-20T01:20:28;27.30;45.40
44723;DHT22;30451;48.638;10.624;2023-07-20T01:28:48;27.30;45.40
44723;DHT22;30451;48.638;10.624;2023-07-20T01:33:49;27.30;45.50
44723;DHT22;30451;48.638;10.624;2023-07-20T01:36:18;27.30;45.50
44723;DHT22;30451;48.638;10.624;2023-07-20T01:38:44;27.30;45.50
44723;DHT22;30451;48.638;10.624;2023-07-20T01:41:11;27.30;45.40
44723;DHT22;30451;48.638;10.624;2023-07-20T01:43:37;27.30;45.50
44723;DHT22;30451;48.638;10.624;2023-07-20T01:46:02;27.30;45.50
44723;DHT22;30451;48.638;10.624;2023-07-20T01:48:28;27.30;45.50
44723;DHT22;30451;48.638;10.624;2023-07-20T01:50:53;27.30;45.50
44723;DHT22;30451;48.638;10.624;2023-07-20T01:53:20;27.30;45.50
44723;DHT22;30451;48.638;10.624;2023-07-20T01:55:46;27.30;45.50
44723;DHT22;30451;48.638;10.624;2023-07-20T01:58:12;27.30;45.50
44723;DHT22;30451;48.638;10.624;2023-07-20T02:00:37;27.30;45.50
44723;DHT22;30451;48.638;10.624;2023-07-20T02:03:04;27.30;45.50
44723;DHT22;30451;48.638;10.624;2023-07-20T02:05:29;27.30;45.50
44723;DHT22;30451;48.638;10.624;2023-07-20T02:07:55;27.30;45.50
44723;DHT22;30451;48.638;10.624;2023-07-20T02:10:21;27.30;45.50
44723;DHT22;30451;48.638;10.624;2023-07-20T02:12:46;27.30;45.60
44723;DHT22;30451;48.638;10.624;2023-07-20T02:15:13;27.30;45.60
44723;DHT22;30451;48.638;10.624;2023-07-20T02:17:42;27.30;45.60
44723;DHT22;30451;48.638;10.624;2023-07-20T02:20:08;27.30;45.60
44723;DHT22;30451;48.638;10.624;2023-07-20T02:22:39;27.30;45.70
44723;DHT22;30451;48.638;10.624;2023-07-20T02:25:05;27.30;45.60
44723;DHT22;30451;48.638;10.624;2023-07-20T02:27:35;27.30;45.60
44723;DHT22;30451;48.638;10.624;2023-07-20T02:30:01;27.30;45.60
44723;DHT22;30451;48.638;10.624;2023-07-20T02:32:28;27.30;45.60
44723;DHT22;30451;48.638;10.624;2023-07-20T02:34:53;27.30;46.10
44723;DHT22;30451;48.638;10.624;2023-07-20T02:37:19;27.30;45.70
44723;DHT22;30451;48.638;10.624;2023-07-20T02:39:45;27.30;45.60
44723;DHT22;30451;48.638;10.624;2023-07-20T02:42:10;27.30;45.60
44723;DHT22;30451;48.638;10.624;2023-07-20T02:44:36;27.30;45.60
44723;DHT22;30451;48.638;10.624;2023-07-20T02:47:02;27.30;45.70
44723;DHT22;30451;48.638;10.624;2023-07-20T02:49:27;27.30;45.60
44723;DHT22;30451;48.638;10.624;2023-07-20T02:51:53;27.30;45.70
44723;DHT22;30451;48.638;10.624;2023-07-20T02:54:19;27.30;45.70
44723;DHT22;30451;48.638;10.624;2023-07-20T02:56:45;27.30;45.70
44723;DHT22;30451;48.638;10.624;2023-07-20T02:59:10;27.20;45.60
44723;DHT22;30451;48.638;10.624;2023-07-20T03:01:36;27.30;45.70
44723;DHT22;30451;48.638;10.624;2023-07-20T03:04:02;27.30;45.70
44723;DHT22;30451;48.638;10.624;2023-07-20T03:06:28;27.30;45.70
44723;DHT22;30451;48.638;10.624;2023-07-20T03:08:53;27.30;45.60
44723;DHT22;30451;48.638;10.624;2023-07-20T03:11:20;27.30;45.60
44723;DHT22;30451;48.638;10.624;2023-07-20T03:13:46;27.20;45.60
44723;DHT22;30451;48.638;10.624;2023-07-20T03:16:14;27.20;45.60
44723;DHT22;30451;48.638;10.624;2023-07-20T03:18:41;27.20;45.60
44723;DHT22;30451;48.638;10.624;2023-07-20T03:21:08;27.20;45.60
44723;DHT22;30451;48.638;10.624;2023-07-20T03:23:34;27.30;45.70
44723;DHT22;30451;48.638;10.624;2023-07-20T03:26:00;27.20;45.60
44723;DHT22;30451;48.638;10.624;2023-07-20T03:28:26;27.20;45.60
44723;DHT22;30451;48.638;10.624;2023-07-20T03:30:55;27.20;45.60
44723;DHT22;30451;48.638;10.624;2023-07-20T03:33:31;27.20;45.60
44723;DHT22;30451;48.638;10.624;2023-07-20T03:35:57;27.20;45.60
44723;DHT22;30451;48.638;10.624;2023-07-20T03:38:24;27.20;45.60
44723;DHT22;30451;48.638;10.624;2023-07-20T03:41:00;27.20;45.60
44723;DHT22;30451;48.638;10.624;2023-07-20T03:43:27;27.20;45.60
44723;DHT22;30451;48.638;10.624;2023-07-20T03:45:53;27.20;45.70
44723;DHT22;30451;48.638;10.624;2023-07-20T03:48:21;27.20;45.70
44723;DHT22;30451;48.638;10.624;2023-07-20T03:50:48;27.20;45.70
44723;DHT22;30451;48.638;10.624;2023-07-20T03:53:15;27.20;45.60
44723;DHT22;30451;48.638;10.624;2023-07-20T03:55:51;27.20;45.60
44723;DHT22;30451;48.638;10.624;2023-07-20T03:58:18;27.20;45.70
44723;DHT22;30451;48.638;10.624;2023-07-20T04:00:48;27.20;44.90
44723;DHT22;30451;48.638;10.624;2023-07-20T04:03:14;27.20;43.80
44723;DHT22;30451;48.638;10.624;2023-07-20T04:05:40;27.20;43.10
44723;DHT22;30451;48.638;10.624;2023-07-20T04:08:06;27.20;42.40
44723;DHT22;30451;48.638;10.624;2023-07-20T04:10:32;27.20;42.00
44723;DHT22;30451;48.638;10.624;2023-07-20T04:12:57;27.20;41.70
44723;DHT22;30451;48.638;10.624;2023-07-20T04:15:23;27.10;41.50
44723;DHT22;30451;48.638;10.624;2023-07-20T04:17:49;27.10;41.30
44723;DHT22;30451;48.638;10.624;2023-07-20T04:20:14;27.10;41.50
44723;DHT22;30451;48.638;10.624;2023-07-20T04:22:40;27.00;41.70
44723;DHT22;30451;48.638;10.624;2023-07-20T04:25:06;27.00;41.70
44723;DHT22;30451;48.638;10.624;2023-07-20T04:27:32;27.00;41.60
44723;DHT22;30451;48.638;10.624;2023-07-20T04:30:00;27.00;41.30
44723;DHT22;30451;48.638;10.624;2023-07-20T04:32:26;27.00;41.20
44723;DHT22;30451;48.638;10.624;2023-07-20T04:34:52;27.00;41.00
44723;DHT22;30451;48.638;10.624;2023-07-20T04:37:17;26.90;40.80
44723;DHT22;30451;48.638;10.624;2023-07-20T04:39:43;26.90;40.70
44723;DHT22;30451;48.638;10.624;2023-07-20T04:42:09;26.90;40.70
44723;DHT22;30451;48.638;10.624;2023-07-20T04:44:35;26.80;40.70
44723;DHT22;30451;48.638;10.624;2023-07-20T04:47:00;26.80;40.60
44723;DHT22;30451;48.638;10.624;2023-07-20T04:49:26;26.80;40.70
44723;DHT22;30451;48.638;10.624;2023-07-20T04:51:52;26.70;40.70
44723;DHT22;30451;48.638;10.624;2023-07-20T04:54:17;26.70;40.80
44723;DHT22;30451;48.638;10.624;2023-07-20T04:56:44;26.70;40.90
44723;DHT22;30451;48.638;10.624;2023-07-20T04:59:10;26.70;41.00
44723;DHT22;30451;48.638;10.624;2023-07-20T05:01:35;26.60;40.90
44723;DHT22;30451;48.638;10.624;2023-07-20T05:04:01;26.60;40.80
44723;DHT22;30451;48.638;10.624;2023-07-20T05:06:27;26.60;40.90
44723;DHT22;30451;48.638;10.624;2023-07-20T05:08:53;26.60;40.80
44723;DHT22;30451;48.638;10.624;2023-07-20T05:11:18;26.60;40.80
44723;DHT22;30451;48.638;10.624;2023-07-20T05:13:45;26.50;40.90
44723;DHT22;30451;48.638;10.624;2023-07-20T05:16:11;26.60;40.90
44723;DHT22;30451;48.638;10.624;2023-07-20T05:18:36;26.60;40.80
44723;DHT22;30451;48.638;10.624;2023-07-20T05:21:02;26.50;40.70
44723;DHT22;30451;48.638;10.624;2023-07-20T05:23:28;26.50;40.60
44723;DHT22;30451;48.638;10.624;2023-07-20T05:25:58;26.50;40.60
44723;DHT22;30451;48.638;10.624;2023-07-20T05:28:24;26.50;40.60
44723;DHT22;30451;48.638;10.624;2023-07-20T05:30:50;26.40;40.70
44723;DHT22;30451;48.638;10.624;2023-07-20T05:33:20;26.40;40.60
44723;DHT22;30451;48.638;10.624;2023-07-20T05:35:46;26.40;40.70
44723;DHT22;30451;48.638;10.624;2023-07-20T05:38:12;26.40;40.70
44723;DHT22;30451;48.638;10.624;2023-07-20T05:40:41;26.40;40.80
44723;DHT22;30451;48.638;10.624;2023-07-20T05:43:08;26.30;40.80
44723;DHT22;30451;48.638;10.624;2023-07-20T05:45:33;26.30;40.90
44723;DHT22;30451;48.638;10.624;2023-07-20T05:47:59;26.30;41.10
44723;DHT22;30451;48.638;10.624;2023-07-20T05:50:25;26.30;41.10
44723;DHT22;30451;48.638;10.624;2023-07-20T05:52:54;26.20;41.00
44723;DHT22;30451;48.638;10.624;2023-07-20T05:55:20;26.20;41.20
44723;DHT22;30451;48.638;10.624;2023-07-20T05:57:46;26.20;41.20
44723;DHT22;30451;48.638;10.624;2023-07-20T06:00:13;26.20;41.30
44723;DHT22;30451;48.638;10.624;2023-07-20T06:02:39;26.20;41.40
44723;DHT22;30451;48.638;10.624;2023-07-20T06:05:06;26.20;41.40
44723;DHT22;30451;48.638;10.624;2023-07-20T06:07:37;26.20;41.40
44723;DHT22;30451;48.638;10.624;2023-07-20T06:10:04;26.10;41.10
44723;DHT22;30451;48.638;10.624;2023-07-20T06:12:31;26.10;41.20
44723;DHT22;30451;48.638;10.624;2023-07-20T06:15:01;26.10;41.10
44723;DHT22;30451;48.638;10.624;2023-07-20T06:17:27;26.10;41.10
44723;DHT22;30451;48.638;10.624;2023-07-20T06:19:53;26.00;41.00
44723;DHT22;30451;48.638;10.624;2023-07-20T06:22:18;26.00;40.90
44723;DHT22;30451;48.638;10.624;2023-07-20T06:24:44;26.00;40.90
44723;DHT22;30451;48.638;10.624;2023-07-20T06:27:09;26.00;40.90
44723;DHT22;30451;48.638;10.624;2023-07-20T06:29:35;26.00;40.90
44723;DHT22;30451;48.638;10.624;2023-07-20T06:32:01;25.90;40.70
44723;DHT22;30451;48.638;10.624;2023-07-20T06:34:26;25.90;40.50
44723;DHT22;30451;48.638;10.624;2023-07-20T06:36:52;25.80;40.60
44723;DHT22;30451;48.638;10.624;2023-07-20T06:39:17;25.80;40.80
44723;DHT22;30451;48.638;10.624;2023-07-20T06:41:43;25.80;41.10
44723;DHT22;30451;48.638;10.624;2023-07-20T06:44:09;25.80;41.50
44723;DHT22;30451;48.638;10.624;2023-07-20T06:46:34;25.80;42.60
44723;DHT22;30451;48.638;10.624;2023-07-20T06:49:00;25.70;42.50
44723;DHT22;30451;48.638;10.624;2023-07-20T06:51:26;25.80;42.40
44723;DHT22;30451;48.638;10.624;2023-07-20T06:53:52;25.70;42.60
44723;DHT22;30451;48.638;10.624;2023-07-20T06:56:20;25.70;42.30
44723;DHT22;30451;48.638;10.624;2023-07-20T06:58:46;25.70;42.80
44723;DHT22;30451;48.638;10.624;2023-07-20T07:01:12;25.80;43.20
44723;DHT22;30451;48.638;10.624;2023-07-20T07:03:37;25.80;43.30
44723;DHT22;30451;48.638;10.624;2023-07-20T07:06:03;25.80;43.20
44723;DHT22;30451;48.638;10.624;2023-07-20T07:08:29;25.80;43.50
44723;DHT22;30451;48.638;10.624;2023-07-20T07:10:54;25.80;43.60
44723;DHT22;30451;48.638;10.624;2023-07-20T07:13:20;25.90;43.70
44723;DHT22;30451;48.638;10.624;2023-07-20T07:15:46;25.90;43.90
44723;DHT22;30451;48.638;10.624;2023-07-20T07:18:11;25.90;43.70
44723;DHT22;30451;48.638;10.624;2023-07-20T07:20:37;26.00;43.70
44723;DHT22;30451;48.638;10.624;2023-07-20T07:23:03;26.00;43.70
44723;DHT22;30451;48.638;10.624;2023-07-20T07:25:28;26.00;43.70
44723;DHT22;30451;48.638;10.624;2023-07-20T07:27:55;26.10;43.70
44723;DHT22;30451;48.638;10.624;2023-07-20T07:30:21;26.10;44.50
44723;DHT22;30451;48.638;10.624;2023-07-20T07:32:47;26.10;43.90
44723;DHT22;30451;48.638;10.624;2023-07-20T07:35:13;26.20;43.80
44723;DHT22;30451;48.638;10.624;2023-07-20T07:37:39;26.20;43.70
44723;DHT22;30451;48.638;10.624;2023-07-20T07:40:06;26.20;43.90
44723;DHT22;30451;48.638;10.624;2023-07-20T07:42:33;26.20;44.10
44723;DHT22;30451;48.638;10.624;2023-07-20T07:44:59;26.20;44.10
44723;DHT22;30451;48.638;10.624;2023-07-20T07:47:25;26.30;44.10
44723;DHT22;30451;48.638;10.624;2023-07-20T07:49:50;26.30;44.10
44723;DHT22;30451;48.638;10.624;2023-07-20T07:52:16;26.30;44.00
44723;DHT22;30451;48.638;10.624;2023-07-20T07:54:42;26.30;44.10
44723;DHT22;30451;48.638;10.624;2023-07-20T07:57:07;26.30;44.20
44723;DHT22;30451;48.638;10.624;2023-07-20T07:59:33;26.30;44.20
44723;DHT22;30451;48.638;10.624;2023-07-20T08:02:03;26.40;44.40
44723;DHT22;30451;48.638;10.624;2023-07-20T08:04:30;26.40;44.20
44723;DHT22;30451;48.638;10.624;2023-07-20T08:06:56;26.40;44.40
44723;DHT22;30451;48.638;10.624;2023-07-20T08:09:21;26.40;44.20
44723;DHT22;30451;48.638;10.624;2023-07-20T08:11:47;26.40;44.20
44723;DHT22;30451;48.638;10.624;2023-07-20T08:14:13;26.50;44.40
44723;DHT22;30451;48.638;10.624;2023-07-20T08:16:42;26.50;44.40
44723;DHT22;30451;48.638;10.624;2023-07-20T08:19:08;26.50;44.20
44723;DHT22;30451;48.638;10.624;2023-07-20T08:21:34;26.50;44.30
44723;DHT22;30451;48.638;10.624;2023-07-20T08:24:00;26.60;44.30
44723;DHT22;30451;48.638;10.624;2023-07-20T08:26:25;26.60;44.20
44723;DHT22;30451;48.638;10.624;2023-07-20T08:28:51;26.60;44.10
44723;DHT22;30451;48.638;10.624;2023-07-20T08:31:17;26.60;44.20
44723;DHT22;30451;48.638;10.624;2023-07-20T08:33:43;26.60;44.40
44723;DHT22;30451;48.638;10.624;2023-07-20T08:36:09;26.70;44.50
44723;DHT22;30451;48.638;10.624;2023-07-20T08:38:34;26.70;44.40
44723;DHT22;30451;48.638;10.624;2023-07-20T08:41:00;26.70;45.10
44723;DHT22;30451;48.638;10.624;2023-07-20T08:43:28;26.70;44.60
44723;DHT22;30451;48.638;10.624;2023-07-20T08:45:55;26.70;45.20
44723;DHT22;30451;48.638;10.624;2023-07-20T08:48:24;26.70;44.50
44723;DHT22;30451;48.638;10.624;2023-07-20T08:50:52;26.80;44.40
44723;DHT22;30451;48.638;10.624;2023-07-20T08:53:22;26.80;44.20
44723;DHT22;30451;48.638;10.624;2023-07-20T08:55:50;26.80;44.10
44723;DHT22;30451;48.638;10.624;2023-07-20T08:58:17;26.90;44.20
44723;DHT22;30451;48.638;10.624;2023-07-20T09:00:43;26.90;44.20
44723;DHT22;30451;48.638;10.624;2023-07-20T09:03:10;26.90;44.10
44723;DHT22;30451;48.638;10.624;2023-07-20T09:05:36;26.90;44.00
44723;DHT22;30451;48.638;10.624;2023-07-20T09:08:02;27.00;44.00
44723;DHT22;30451;48.638;10.624;2023-07-20T09:10:31;27.00;44.00
44723;DHT22;30451;48.638;10.624;2023-07-20T09:12:57;27.00;44.00
44723;DHT22;30451;48.638;10.624;2023-07-20T09:15:22;27.00;44.00
44723;DHT22;30451;48.638;10.624;2023-07-20T09:17:49;27.00;43.90
44723;DHT22;30451;48.638;10.624;2023-07-20T09:20:19;27.00;43.90
44723;DHT22;30451;48.638;10.624;2023-07-20T09:22:45;27.00;43.90
44723;DHT22;30451;48.638;10.624;2023-07-20T09:25:16;27.10;44.00
44723;DHT22;30451;48.638;10.624;2023-07-20T09:27:46;27.10;43.90
44723;DHT22;30451;48.638;10.624;2023-07-20T09:30:12;27.10;43.90
44723;DHT22;30451;48.638;10.624;2023-07-20T09:32:47;27.10;43.90
44723;DHT22;30451;48.638;10.624;2023-07-20T09:35:17;27.10;43.90
44723;DHT22;30451;48.638;10.624;2023-07-20T09:40:15;27.10;43.90
44723;DHT22;30451;48.638;10.624;2023-07-20T09:42:42;27.10;43.90
44723;DHT22;30451;48.638;10.624;2023-07-20T09:45:08;27.20;44.00
44723;DHT22;30451;48.638;10.624;2023-07-20T09:47:36;27.10;44.00
44723;DHT22;30451;48.638;10.624;2023-07-20T09:50:03;27.10;43.90
44723;DHT22;30451;48.638;10.624;2023-07-20T09:52:30;27.20;43.90
44723;DHT22;30451;48.638;10.624;2023-07-20T09:54:57;27.20;43.90
44723;DHT22;30451;48.638;10.624;2023-07-20T09:57:23;27.20;43.90
44723;DHT22;30451;48.638;10.624;2023-07-20T09:59:48;27.20;43.90
44723;DHT22;30451;48.638;10.624;2023-07-20T10:02:21;27.20;43.80
44723;DHT22;30451;48.638;10.624;2023-07-20T10:04:52;27.20;43.80
44723;DHT22;30451;48.638;10.624;2023-07-20T10:07:19;27.20;43.80
44723;DHT22;30451;48.638;10.624;2023-07-20T10:09:48;27.20;43.80
44723;DHT22;30451;48.638;10.624;2023-07-20T10:12:17;27.20;43.80
44723;DHT22;30451;48.638;10.624;2023-07-20T10:14:54;27.20;43.80
44723;DHT22;30451;48.638;10.624;2023-07-20T10:17:25;27.20;43.70
44723;DHT22;30451;48.638;10.624;2023-07-20T10:19:54;27.30;43.80
44723;DHT22;30451;48.638;10.624;2023-07-20T10:22:26;27.20;43.70
44723;DHT22;30451;48.638;10.624;2023-07-20T10:24:52;27.20;43.70
44723;DHT22;30451;48.638;10.624;2023-07-20T10:27:20;27.30;43.70
44723;DHT22;30451;48.638;10.624;2023-07-20T10:29:47;27.30;43.70
44723;DHT22;30451;48.638;10.624;2023-07-20T10:32:13;27.30;43.80
44723;DHT22;30451;48.638;10.624;2023-07-20T10:34:39;27.30;43.70
44723;DHT22;30451;48.638;10.624;2023-07-20T10:37:05;27.30;43.70
44723;DHT22;30451;48.638;10.624;2023-07-20T10:39:31;27.30;43.60
44723;DHT22;30451;48.638;10.624;2023-07-20T10:42:10;27.30;43.50
44723;DHT22;30451;48.638;10.624;2023-07-20T10:44:39;27.30;43.50
44723;DHT22;30451;48.638;10.624;2023-07-20T10:47:12;27.30;43.40
44723;DHT22;30451;48.638;10.624;2023-07-20T10:49:57;27.30;43.30
44723;DHT22;30451;48.638;10.624;2023-07-20T10:52:24;27.30;43.20
44723;DHT22;30451;48.638;10.624;2023-07-20T10:54:49;27.40;43.20
44723;DHT22;30451;48.638;10.624;2023-07-20T10:57:29;27.30;43.10
44723;DHT22;30451;48.638;10.624;2023-07-20T11:00:11;27.40;43.20
44723;DHT22;30451;48.638;10.624;2023-07-20T11:02:47;27.40;43.10
44723;DHT22;30451;48.638;10.624;2023-07-20T11:07:57;27.40;43.00
44723;DHT22;30451;48.638;10.624;2023-07-20T11:10:23;27.40;43.10
44723;DHT22;30451;48.638;10.624;2023-07-20T11:16:08;27.40;43.40
44723;DHT22;30451;48.638;10.624;2023-07-20T11:18:34;27.40;42.80
44723;DHT22;30451;48.638;10.624;2023-07-20T11:21:07;27.40;42.80
44723;DHT22;30451;48.638;10.624;2023-07-20T11:23:38;27.40;42.80
44723;DHT22;30451;48.638;10.624;2023-07-20T11:26:03;27.40;42.80
44723;DHT22;30451;48.638;10.624;2023-07-20T11:28:30;27.40;42.80
44723;DHT22;30451;48.638;10.624;2023-07-20T11:30:56;27.50;42.90
44723;DHT22;30451;48.638;10.624;2023-07-20T11:33:21;27.50;42.80
44723;DHT22;30451;48.638;10.624;2023-07-20T11:35:50;27.50;42.90
44723;DHT22;30451;48.638;10.624;2023-07-20T11:38:16;27.50;42.80
44723;DHT22;30451;48.638;10.624;2023-07-20T11:40:45;27.50;42.80
44723;DHT22;30451;48.638;10.624;2023-07-20T11:43:13;27.50;42.90
44723;DHT22;30451;48.638;10.624;2023-07-20T11:45:39;27.50;43.00
44723;DHT22;30451;48.638;10.624;2023-07-20T11:48:05;27.50;43.00
44723;DHT22;30451;48.638;10.624;2023-07-20T11:50:31;27.60;43.10
44723;DHT22;30451;48.638;10.624;2023-07-20T11:52:57;27.60;43.20
44723;DHT22;30451;48.638;10.624;2023-07-20T11:55:23;27.60;43.20
44723;DHT22;30451;48.638;10.624;2023-07-20T11:58:18;27.60;43.10
44723;DHT22;30451;48.638;10.624;2023-07-20T12:00:44;27.60;43.20
44723;DHT22;30451;48.638;10.624;2023-07-20T12:03:12;27.60;43.30
44723;DHT22;30451;48.638;10.624;2023-07-20T12:05:38;27.60;43.30
44723;DHT22;30451;48.638;10.624;2023-07-20T12:08:04;27.60;43.30
44723;DHT22;30451;48.638;10.624;2023-07-20T12:10:30;27.70;43.30
44723;DHT22;30451;48.638;10.624;2023-07-20T12:13:03;27.60;43.30
44723;DHT22;30451;48.638;10.624;2023-07-20T12:15:32;27.70;43.30
44723;DHT22;30451;48.638;10.624;2023-07-20T12:18:02;27.70;43.40
44723;DHT22;30451;48.638;10.624;2023-07-20T12:20:37;27.70;43.30
44723;DHT22;30451;48.638;10.624;2023-07-20T12:23:11;27.70;43.30
44723;DHT22;30451;48.638;10.624;2023-07-20T12:25:44;27.70;43.30
44723;DHT22;30451;48.638;10.624;2023-07-20T12:28:12;27.70;43.30
44723;DHT22;30451;48.638;10.624;2023-07-20T12:30:40;27.70;43.30
44723;DHT22;30451;48.638;10.624;2023-07-20T12:33:06;27.70;43.30
44723;DHT22;30451;48.638;10.624;2023-07-20T12:35:35;27.70;43.40
44723;DHT22;30451;48.638;10.624;2023-07-20T12:38:01;27.70;43.40
44723;DHT22;30451;48.638;10.624;2023-07-20T12:40:27;27.80;43.40
44723;DHT22;30451;48.638;10.624;2023-07-20T12:42:53;27.80;43.30
44723;DHT22;30451;48.638;10.624;2023-07-20T12:45:18;27.80;43.30
44723;DHT22;30451;48.638;10.624;2023-07-20T12:47:44;27.80;43.30
44723;DHT22;30451;48.638;10.624;2023-07-20T12:50:11;27.80;43.30
44723;DHT22;30451;48.638;10.624;2023-07-20T12:52:37;27.80;43.40
44723;DHT22;30451;48.638;10.624;2023-07-20T12:55:07;27.80;43.30
44723;DHT22;30451;48.638;10.624;2023-07-20T12:57:34;27.80;43.40
44723;DHT22;30451;48.638;10.624;2023-07-20T13:00:04;27.80;43.40
44723;DHT22;30451;48.638;10.624;2023-07-20T13:02:32;27.80;43.50
44723;DHT22;30451;48.638;10.624;2023-07-20T13:04:58;27.80;43.70
44723;DHT22;30451;48.638;10.624;2023-07-20T13:07:33;27.80;43.60
44723;DHT22;30451;48.638;10.624;2023-07-20T13:10:00;27.90;43.60
44723;DHT22;30451;48.638;10.624;2023-07-20T13:12:27;27.90;43.50
44723;DHT22;30451;48.638;10.624;2023-07-20T13:14:54;27.90;43.50
44723;DHT22;30451;48.638;10.624;2023-07-20T13:17:19;27.90;43.50
44723;DHT22;30451;48.638;10.624;2023-07-20T13:19:45;27.90;43.60
44723;DHT22;30451;48.638;10.624;2023-07-20T13:22:11;27.90;43.60
44723;DHT22;30451;48.638;10.624;2023-07-20T13:24:37;27.90;43.60
44723;DHT22;30451;48.638;10.624;2023-07-20T13:27:03;28.00;43.70
44723;DHT22;30451;48.638;10.624;2023-07-20T13:29:29;27.90;43.70
44723;DHT22;30451;48.638;10.624;2023-07-20T13:31:54;27.90;43.90
44723;DHT22;30451;48.638;10.624;2023-07-20T13:34:20;28.00;44.00
44723;DHT22;30451;48.638;10.624;2023-07-20T13:36:45;28.00;44.00
44723;DHT22;30451;48.638;10.624;2023-07-20T13:39:11;28.00;43.90
44723;DHT22;30451;48.638;10.624;2023-07-20T13:41:37;28.00;43.90
44723;DHT22;30451;48.638;10.624;2023-07-20T13:44:02;28.00;44.00
44723;DHT22;30451;48.638;10.624;2023-07-20T13:46:28;28.00;43.90
44723;DHT22;30451;48.638;10.624;2023-07-20T13:48:54;28.00;43.90
44723;DHT22;30451;48.638;10.624;2023-07-20T13:51:19;28.00;43.90
44723;DHT22;30451;48.638;10.624;2023-07-20T13:53:47;28.00;43.90
44723;DHT22;30451;48.638;10.624;2023-07-20T13:56:12;28.00;44.00
44723;DHT22;30451;48.638;10.624;2023-07-20T13:58:38;28.00;44.00
44723;DHT22;30451;48.638;10.624;2023-07-20T14:01:04;28.00;44.00
44723;DHT22;30451;48.638;10.624;2023-07-20T14:03:29;28.00;44.00
44723;DHT22;30451;48.638;10.624;2023-07-20T14:05:55;28.00;44.60
44723;DHT22;30451;48.638;10.624;2023-07-20T14:08:23;28.00;44.00
44723;DHT22;30451;48.638;10.624;2023-07-20T14:10:49;28.00;44.10
44723;DHT22;30451;48.638;10.624;2023-07-20T14:13:15;28.00;44.10
44723;DHT22;30451;48.638;10.624;2023-07-20T14:15:43;28.00;44.10
44723;DHT22;30451;48.638;10.624;2023-07-20T14:18:09;27.90;44.10
44723;DHT22;30451;48.638;10.624;2023-07-20T14:20:35;27.90;44.00
44723;DHT22;30451;48.638;10.624;2023-07-20T14:23:00;27.90;44.00
44723;DHT22;30451;48.638;10.624;2023-07-20T14:25:26;27.90;44.10
44723;DHT22;30451;48.638;10.624;2023-07-20T14:27:52;27.90;44.10
44723;DHT22;30451;48.638;10.624;2023-07-20T14:30:17;27.90;44.10
44723;DHT22;30451;48.638;10.624;2023-07-20T14:32:43;27.90;44.10
44723;DHT22;30451;48.638;10.624;2023-07-20T14:35:09;27.90;44.10
44723;DHT22;30451;48.638;10.624;2023-07-20T14:37:34;27.90;44.10
44723;DHT22;30451;48.638;10.624;2023-07-20T14:40:00;27.80;44.10
44723;DHT22;30451;48.638;10.624;2023-07-20T14:42:26;27.80;44.10
44723;DHT22;30451;48.638;10.624;2023-07-20T14:44:52;27.80;44.10
44723;DHT22;30451;48.638;10.624;2023-07-20T14:47:18;27.80;44.20
44723;DHT22;30451;48.638;10.624;2023-07-20T14:49:44;27.80;44.20
44723;DHT22;30451;48.638;10.624;2023-07-20T14:52:10;27.80;44.20
44723;DHT22;30451;48.638;10.624;2023-07-20T14:54:36;27.80;44.20
44723;DHT22;30451;48.638;10.624;2023-07-20T14:57:01;27.80;44.30
44723;DHT22;30451;48.638;10.624;2023-07-20T14:59:28;27.80;44.20
44723;DHT22;30451;48.638;10.624;2023-07-20T15:01:53;27.70;44.20
44723;DHT22;30451;48.638;10.624;2023-07-20T15:04:19;27.80;44.30
44723;DHT22;30451;48.638;10.624;2023-07-20T15:06:45;27.70;44.30
44723;DHT22;30451;48.638;10.624;2023-07-20T15:09:10;27.70;44.30
44723;DHT22;30451;48.638;10.624;2023-07-20T15:11:36;27.70;44.30
44723;DHT22;30451;48.638;10.624;2023-07-20T15:14:02;27.70;44.30
44723;DHT22;30451;48.638;10.624;2023-07-20T15:16:28;27.70;44.30
44723;DHT22;30451;48.638;10.624;2023-07-20T15:18:54;27.70;44.30
44723;DHT22;30451;48.638;10.624;2023-07-20T15:21:19;27.70;44.40
44723;DHT22;30451;48.638;10.624;2023-07-20T15:23:45;27.70;44.30
44723;DHT22;30451;48.638;10.624;2023-07-20T15:26:11;27.70;44.10
44723;DHT22;30451;48.638;10.624;2023-07-20T15:28:38;27.70;43.90
44723;DHT22;30451;48.638;10.624;2023-07-20T15:31:04;27.70;43.90
44723;DHT22;30451;48.638;10.624;2023-07-20T15:33:30;27.70;43.80